createdAt,value
2018-08-23T00:02:15.664Z,67.85
2018-08-23T00:04:43.771Z,67.75
2018-08-23T00:07:15.377Z,68.24
2018-08-23T00:09:44.166Z,68.49
2018-08-23T00:12:12.239Z,68.86
2018-08-23T00:14:40.339Z,68.17
2018-08-23T00:17:08.399Z,67.74
2018-08-23T00:19:36.467Z,67.23
2018-08-23T00:22:04.531Z,68.05
2018-08-23T00:24:32.614Z,68.33
2018-08-23T00:27:00.698Z,69.25
2018-08-23T00:29:31.039Z,69.46
2018-08-23T00:32:03.482Z,69.51
2018-08-23T00:34:33.770Z,68.91
2018-08-23T00:37:02.658Z,68.84
2018-08-23T00:39:30.887Z,68.58
2018-08-23T00:42:09.240Z,69.15
2018-08-23T00:44:54.128Z,70.25
2018-08-23T00:47:24.120Z,70.03
2018-08-23T00:49:52.228Z,70.28
2018-08-23T00:52:27.528Z,71.25
2018-08-23T00:54:56.563Z,71.07
2018-08-23T00:57:24.635Z,71.14
2018-08-23T00:59:56.886Z,71.45
2018-08-23T01:02:24.948Z,70.58
2018-08-23T01:04:53.029Z,70.52
2018-08-23T01:07:23.347Z,71.76
2018-08-23T01:09:51.416Z,72.79
2018-08-23T01:12:20.242Z,72.15
2018-08-23T01:14:49.863Z,71.96
2018-08-23T01:17:18.860Z,71.30
2018-08-23T01:19:52.385Z,71.06
2018-08-23T01:22:20.476Z,71.57
2018-08-23T01:24:49.715Z,71.29
2018-08-23T01:27:51.464Z,72.24
2018-08-23T01:30:20.192Z,71.61
2018-08-23T01:32:48.285Z,72.19
2018-08-23T01:35:16.369Z,72.04
2018-08-23T01:37:44.456Z,72.82
2018-08-23T01:40:12.534Z,73.04
2018-08-23T01:42:41.635Z,72.61
2018-08-23T01:45:11.004Z,72.50
2018-08-23T01:47:43.394Z,73.42
2018-08-23T01:50:12.203Z,73.30
2018-08-23T01:52:45.278Z,72.85
2018-08-23T01:55:14.209Z,73.80
2018-08-23T01:57:42.330Z,73.79
2018-08-23T02:00:11.152Z,73.33
2018-08-23T02:02:39.266Z,73.66
2018-08-23T02:05:07.704Z,74.26
2018-08-23T02:07:35.822Z,73.69
2018-08-23T02:10:04.111Z,73.81
2018-08-23T02:12:32.175Z,74.24
2018-08-23T02:15:01.207Z,75.35
2018-08-23T02:17:33.715Z,75.61
2018-08-23T02:20:01.891Z,76.42
2018-08-23T02:22:30.063Z,75.72
2018-08-23T02:24:58.125Z,74.95
2018-08-23T02:27:26.237Z,75.19
2018-08-23T02:29:54.385Z,75.45
2018-08-23T02:32:22.487Z,75.78
2018-08-23T02:34:50.620Z,76.50
2018-08-23T02:37:18.908Z,76.56
2018-08-23T02:39:47.402Z,76.36
2018-08-23T02:42:18.435Z,75.96
2018-08-23T02:44:47.227Z,76.05
2018-08-23T02:47:16.177Z,75.74
2018-08-23T02:49:44.420Z,75.52
2018-08-23T02:52:12.527Z,75.71
2018-08-23T02:54:40.620Z,75.82
2018-08-23T02:57:10.091Z,76.77
2018-08-23T02:59:38.320Z,76.96
2018-08-23T03:02:12.334Z,76.27
2018-08-23T03:04:40.496Z,75.82
2018-08-23T03:07:08.595Z,76.50
2018-08-23T03:09:37.776Z,76.60
2018-08-23T03:12:24.351Z,76.21
2018-08-23T03:14:52.424Z,76.95
2018-08-23T03:17:35.788Z,77.40
2018-08-23T03:20:14.055Z,76.27
2018-08-23T03:22:43.048Z,76.98
2018-08-23T03:25:12.351Z,76.86
2018-08-23T03:27:40.432Z,76.66
2018-08-23T03:30:09.548Z,75.99
2018-08-23T03:32:37.675Z,76.87
2018-08-23T03:35:05.809Z,77.19
2018-08-23T03:37:33.936Z,78.44
2018-08-23T03:40:02.023Z,78.28
2018-08-23T03:42:30.112Z,78.87
2018-08-23T03:44:58.999Z,79.20
2018-08-23T03:47:27.651Z,79.49
2018-08-23T03:49:55.769Z,79.96
2018-08-23T03:52:28.089Z,80.10
2018-08-23T03:55:01.308Z,79.69
2018-08-23T03:57:34.651Z,79.07
2018-08-23T04:00:02.919Z,79.03
2018-08-23T04:02:31.012Z,78.79
2018-08-23T04:05:04.920Z,78.98
2018-08-23T04:07:33.027Z,78.70
2018-08-23T04:10:01.156Z,79.30
2018-08-23T04:12:29.347Z,79.87
2018-08-23T04:15:11.778Z,79.59
2018-08-23T04:17:39.867Z,80.06
2018-08-23T04:20:08.073Z,79.55
2018-08-23T04:22:36.248Z,78.93
2018-08-23T04:25:04.685Z,80.47
2018-08-23T04:27:32.832Z,81.15
2018-08-23T04:30:00.962Z,81.55
2018-08-23T04:32:34.319Z,81.46
2018-08-23T04:35:02.477Z,81.89
2018-08-23T04:37:31.075Z,81.75
2018-08-23T04:40:03.121Z,81.21
2018-08-23T04:42:31.276Z,81.95
2018-08-23T04:45:07.578Z,80.93
2018-08-23T04:47:35.678Z,81.82
2018-08-23T04:50:03.791Z,81.08
2018-08-23T04:52:31.866Z,79.86
2018-08-23T04:54:59.956Z,79.45
2018-08-23T04:57:28.055Z,79.36
2018-08-23T04:59:56.174Z,79.90
2018-08-23T05:02:24.248Z,80.17
2018-08-23T05:04:52.317Z,80.18
2018-08-23T05:07:20.448Z,80.23
2018-08-23T05:09:48.621Z,79.99
2018-08-23T05:12:16.824Z,80.22
2018-08-23T05:14:45.064Z,80.04
2018-08-23T05:17:13.228Z,79.56
2018-08-23T05:19:41.332Z,79.91
2018-08-23T05:22:09.424Z,79.41
2018-08-23T05:24:37.537Z,79.80
2018-08-23T05:27:06.059Z,79.52
2018-08-23T05:29:34.372Z,79.07
2018-08-23T05:32:02.477Z,79.46
2018-08-23T05:34:30.571Z,79.08
2018-08-23T05:36:58.692Z,78.80
2018-08-23T05:39:39.739Z,78.57
2018-08-23T05:42:07.868Z,78.60
2018-08-23T05:44:35.991Z,77.98
2018-08-23T05:47:04.144Z,77.91
2018-08-23T05:49:32.262Z,78.21
2018-08-23T05:52:00.534Z,78.16
2018-08-23T05:54:28.655Z,77.78
2018-08-23T05:56:56.824Z,76.92
2018-08-23T05:59:24.978Z,76.66
2018-08-23T06:01:53.061Z,76.59
2018-08-23T06:04:32.437Z,76.22
2018-08-23T06:07:00.533Z,75.97
2018-08-23T06:09:28.602Z,75.35
2018-08-23T06:11:56.683Z,75.05
2018-08-23T06:14:24.770Z,74.38
2018-08-23T06:16:56.206Z,74.05
2018-08-23T06:19:24.624Z,73.92
2018-08-23T06:21:52.720Z,73.73
2018-08-23T06:24:20.809Z,73.56
2018-08-23T06:26:51.932Z,73.12
2018-08-23T06:29:22.227Z,73.11
2018-08-23T06:31:58.494Z,73.16
2018-08-23T06:34:27.877Z,71.85
2018-08-23T06:36:56.964Z,71.23
2018-08-23T06:39:25.064Z,70.60
2018-08-23T06:41:54.149Z,69.62
2018-08-23T06:44:22.586Z,69.36
2018-08-23T06:46:50.644Z,68.43
2018-08-23T06:49:18.730Z,69.16
2018-08-23T06:51:47.595Z,68.53
2018-08-23T06:54:15.723Z,68.11
2018-08-23T06:56:43.816Z,68.28
2018-08-23T06:59:11.997Z,67.56
2018-08-23T07:01:45.284Z,67.66
2018-08-23T07:04:14.234Z,67.92
2018-08-23T07:06:42.515Z,66.26
2018-08-23T07:09:16.578Z,65.44
2018-08-23T07:11:44.946Z,65.42
2018-08-23T07:14:14.404Z,65.03
2018-08-23T07:16:43.756Z,64.83
2018-08-23T07:19:25.902Z,64.51
2018-08-23T07:21:54.716Z,64.69
2018-08-23T07:24:40.169Z,64.53
2018-08-23T07:27:09.630Z,63.79
2018-08-23T07:29:37.700Z,63.15
2018-08-23T07:32:07.134Z,62.68
2018-08-23T07:34:35.729Z,62.70
2018-08-23T07:37:09.076Z,62.45
2018-08-23T07:39:37.160Z,61.84
2018-08-23T07:42:05.263Z,61.76
2018-08-23T07:44:33.335Z,60.91
2018-08-23T07:47:01.438Z,60.11
2018-08-23T07:49:29.510Z,59.75
2018-08-23T07:51:57.580Z,59.40
2018-08-23T07:54:25.653Z,58.78
2018-08-23T07:56:53.732Z,58.60
2018-08-23T07:59:21.850Z,58.33
2018-08-23T08:01:49.931Z,58.36
2018-08-23T08:04:17.994Z,57.86
2018-08-23T08:06:46.072Z,57.53
2018-08-23T08:09:14.182Z,56.63
2018-08-23T08:11:52.455Z,57.64
2018-08-23T08:14:25.822Z,57.02
2018-08-23T08:16:58.063Z,57.59
2018-08-23T08:19:26.280Z,57.38
2018-08-23T08:21:54.368Z,57.10
2018-08-23T08:24:22.423Z,55.93
2018-08-23T08:26:50.500Z,56.70
2018-08-23T08:29:23.849Z,57.08
2018-08-23T08:31:51.924Z,56.65
2018-08-23T08:34:20.414Z,56.51
2018-08-23T08:36:48.507Z,56.18
2018-08-23T08:39:16.579Z,55.76
2018-08-23T08:41:44.665Z,56.01
2018-08-23T08:44:12.782Z,54.49
2018-08-23T08:46:40.891Z,54.85
2018-08-23T08:49:08.962Z,53.98
2018-08-23T08:51:37.038Z,54.39
2018-08-23T08:54:05.107Z,54.61
2018-08-23T08:56:38.475Z,53.54
2018-08-23T08:59:06.514Z,54.40
2018-08-23T09:01:34.643Z,53.33
2018-08-23T09:04:02.757Z,52.00
2018-08-23T09:06:46.392Z,51.15
2018-08-23T09:09:34.623Z,52.79
2018-08-23T09:12:05.184Z,51.54
2018-08-23T09:14:33.549Z,52.55
2018-08-23T09:17:39.279Z,51.84
2018-08-23T09:20:09.460Z,53.35
2018-08-23T09:22:39.947Z,53.16
2018-08-23T09:25:11.036Z,53.17
2018-08-23T09:27:39.060Z,51.98
2018-08-23T09:30:11.483Z,51.77
2018-08-23T09:32:39.678Z,52.66
2018-08-23T09:35:07.811Z,52.61
2018-08-23T09:37:38.780Z,50.63
2018-08-23T09:40:07.612Z,50.15
2018-08-23T09:42:36.607Z,49.66
2018-08-23T09:45:09.163Z,49.18
2018-08-23T09:47:37.226Z,49.00
2018-08-23T09:50:05.818Z,48.99
2018-08-23T09:52:39.844Z,47.77
2018-08-23T09:55:09.195Z,48.28
2018-08-23T09:57:37.788Z,48.59
2018-08-23T10:00:10.422Z,47.96
2018-08-23T10:02:43.908Z,48.35
2018-08-23T10:05:17.251Z,48.27
2018-08-23T10:07:50.727Z,49.14
2018-08-23T10:10:24.217Z,48.83
2018-08-23T10:12:57.703Z,48.66
2018-08-23T10:15:31.210Z,48.06
2018-08-23T10:18:04.533Z,49.71
2018-08-23T10:20:42.660Z,48.29
2018-08-23T10:23:15.995Z,47.94
2018-08-23T10:25:45.420Z,48.39
2018-08-23T10:28:14.696Z,48.72
2018-08-23T10:30:43.509Z,47.96
2018-08-23T10:33:11.617Z,46.71
2018-08-23T10:35:43.884Z,46.37
2018-08-23T10:38:14.122Z,46.35
2018-08-23T10:40:42.661Z,48.28
2018-08-23T10:43:10.783Z,46.85
2018-08-23T10:45:38.882Z,46.99
2018-08-23T10:48:12.299Z,46.41
2018-08-23T10:50:40.469Z,46.76
2018-08-23T10:53:08.544Z,47.20
2018-08-23T10:55:36.661Z,46.50
2018-08-23T10:58:04.731Z,47.11
2018-08-23T11:00:32.839Z,46.77
2018-08-23T11:03:00.920Z,46.19
2018-08-23T11:05:29.075Z,42.28
2018-08-23T11:08:03.082Z,42.97
2018-08-23T11:10:36.570Z,42.93
2018-08-23T11:13:10.060Z,41.68
2018-08-23T11:15:38.160Z,42.57
2018-08-23T11:18:11.856Z,42.37
2018-08-23T11:20:49.039Z,42.49
2018-08-23T11:23:18.375Z,42.98
2018-08-23T11:25:46.595Z,41.26
2018-08-23T11:28:21.292Z,42.29
2018-08-23T11:30:49.788Z,42.60
2018-08-23T11:33:17.874Z,41.36
2018-08-23T11:35:45.959Z,41.97
2018-08-23T11:38:14.095Z,42.15
2018-08-23T11:40:42.273Z,40.67
2018-08-23T11:43:10.354Z,41.85
2018-08-23T11:45:38.437Z,41.76
2018-08-23T11:48:06.628Z,41.88
2018-08-23T11:50:34.773Z,41.19
2018-08-23T11:53:02.915Z,42.10
2018-08-23T11:55:30.965Z,40.48
2018-08-23T11:57:59.180Z,41.12
2018-08-23T12:00:27.206Z,39.04
2018-08-23T12:02:55.287Z,38.00
2018-08-23T12:05:23.371Z,38.15
2018-08-23T12:07:52.763Z,38.83
2018-08-23T12:10:21.965Z,38.27
2018-08-23T12:12:52.364Z,37.89
2018-08-23T12:15:25.015Z,37.28
2018-08-23T12:17:53.878Z,37.83
2018-08-23T12:20:21.994Z,37.23
2018-08-23T12:22:50.059Z,35.88
2018-08-23T12:25:18.172Z,36.53
2018-08-23T12:27:57.479Z,37.06
2018-08-23T12:30:25.592Z,34.02
2018-08-23T12:32:53.905Z,33.53
2018-08-23T12:35:22.127Z,34.33
2018-08-23T12:38:01.881Z,33.11
2018-08-23T12:40:36.092Z,33.81
2018-08-23T12:43:06.532Z,33.99
2018-08-23T12:45:38.706Z,35.17
2018-08-23T12:48:07.182Z,34.89
2018-08-23T12:50:35.992Z,32.20
2018-08-23T12:53:04.133Z,32.88
2018-08-23T12:55:32.302Z,31.99
2018-08-23T12:58:00.387Z,33.25
2018-08-23T13:00:28.602Z,32.25
2018-08-23T13:02:56.813Z,32.58
2018-08-23T13:05:24.864Z,33.44
2018-08-23T13:07:52.966Z,33.32
2018-08-23T13:10:21.070Z,33.38
2018-08-23T13:12:49.175Z,32.93
2018-08-23T13:15:17.288Z,32.95
2018-08-23T13:17:45.548Z,30.56
2018-08-23T13:20:13.696Z,30.45
2018-08-23T13:22:41.836Z,30.17
2018-08-23T13:25:12.511Z,29.31
2018-08-23T13:27:40.743Z,30.44
2018-08-23T13:30:08.710Z,31.45
2018-08-23T13:32:36.896Z,30.53
2018-08-23T13:35:05.105Z,30.90
2018-08-23T13:37:33.257Z,30.59
2018-08-23T13:40:01.380Z,30.74
2018-08-23T13:42:29.597Z,30.92
2018-08-23T13:44:57.734Z,30.50
2018-08-23T13:47:25.884Z,30.59
2018-08-23T13:49:53.967Z,30.73
2018-08-23T13:52:22.149Z,29.97
2018-08-23T13:54:50.356Z,31.23
2018-08-23T13:57:18.657Z,30.92
2018-08-23T13:59:46.955Z,30.49
2018-08-23T14:02:15.295Z,31.19
2018-08-23T14:04:43.428Z,31.16
2018-08-23T14:07:11.643Z,32.11
2018-08-23T14:09:39.740Z,31.48
2018-08-23T14:12:07.930Z,32.49
2018-08-23T14:14:36.008Z,32.03
2018-08-23T14:17:04.119Z,31.80
2018-08-23T14:19:32.207Z,31.99
2018-08-23T14:22:00.353Z,33.43
2018-08-23T14:24:28.419Z,32.35
2018-08-23T14:26:56.540Z,33.04
2018-08-23T14:29:24.631Z,32.61
2018-08-23T14:31:52.755Z,33.95
2018-08-23T14:34:20.819Z,32.27
2018-08-23T14:36:48.983Z,32.15
2018-08-23T14:39:17.058Z,32.60
2018-08-23T14:41:45.199Z,33.42
2018-08-23T14:44:13.300Z,32.93
2018-08-23T14:46:46.672Z,33.61
2018-08-23T14:49:20.234Z,32.73
2018-08-23T14:51:48.318Z,32.80
2018-08-23T14:54:21.751Z,33.92
2018-08-23T14:57:52.296Z,33.14
2018-08-23T15:00:20.389Z,33.94
2018-08-23T15:02:48.496Z,33.56
2018-08-23T15:05:16.615Z,33.74
2018-08-23T15:07:44.745Z,34.10
2018-08-23T15:10:12.789Z,32.73
2018-08-23T15:12:40.947Z,32.98
2018-08-23T15:15:09.554Z,34.20
2018-08-23T15:17:37.659Z,34.32
2018-08-23T15:20:06.047Z,33.57
2018-08-23T15:22:34.135Z,34.19
2018-08-23T15:25:02.236Z,35.05
2018-08-23T15:27:33.603Z,33.00
2018-08-23T15:30:02.700Z,33.77
2018-08-23T15:32:30.810Z,32.74
2018-08-23T15:34:58.882Z,33.86
2018-08-23T15:37:27.091Z,34.78
2018-08-23T15:39:55.162Z,34.02
2018-08-23T15:42:23.239Z,34.57
2018-08-23T15:44:51.315Z,33.35
2018-08-23T15:47:19.386Z,34.20
2018-08-23T15:49:47.463Z,33.76
2018-08-23T15:52:15.528Z,34.19
2018-08-23T15:54:43.608Z,32.42
2018-08-23T15:57:11.735Z,33.51
2018-08-23T15:59:39.799Z,34.18
2018-08-23T16:02:07.876Z,33.35
2018-08-23T16:04:35.937Z,34.03
2018-08-23T16:07:04.010Z,33.81
2018-08-23T16:09:32.072Z,34.11
2018-08-23T16:12:00.133Z,34.56
2018-08-23T16:14:28.211Z,34.23
2018-08-23T16:17:01.548Z,33.90
2018-08-23T16:19:34.977Z,34.70
2018-08-23T16:22:03.067Z,32.53
2018-08-23T16:24:31.136Z,32.91
2018-08-23T16:27:05.196Z,33.21
2018-08-23T16:29:33.273Z,33.23
2018-08-23T16:32:01.542Z,33.74
2018-08-23T16:34:29.576Z,33.49
2018-08-23T16:36:58.068Z,34.08
2018-08-23T16:39:26.344Z,33.06
2018-08-23T16:41:54.415Z,34.12
2018-08-23T16:44:22.497Z,33.40
2018-08-23T16:46:50.551Z,34.00
2018-08-23T16:49:18.631Z,34.92
2018-08-23T16:51:46.721Z,34.68
2018-08-23T16:54:14.840Z,34.65
2018-08-23T16:56:42.908Z,34.90
2018-08-23T16:59:10.995Z,33.47
2018-08-23T17:01:39.103Z,33.92
2018-08-23T17:04:07.174Z,34.33
2018-08-23T17:06:35.235Z,35.25
2018-08-23T17:09:03.808Z,34.63
2018-08-23T17:11:31.890Z,35.11
2018-08-23T17:13:59.988Z,35.06
2018-08-23T17:16:33.546Z,34.46
2018-08-23T17:19:01.665Z,35.03
2018-08-23T17:21:29.736Z,35.09
2018-08-23T17:23:57.916Z,36.29
2018-08-23T17:26:25.991Z,35.67
2018-08-23T17:28:54.050Z,36.97
2018-08-23T17:31:22.128Z,37.41
2018-08-23T17:33:50.200Z,37.36
2018-08-23T17:36:18.292Z,37.67
2018-08-23T17:38:46.374Z,37.59
2018-08-23T17:41:14.451Z,37.97
2018-08-23T17:43:42.524Z,37.55
2018-08-23T17:46:10.608Z,38.02
2018-08-23T17:48:38.687Z,39.50
2018-08-23T17:51:06.744Z,38.46
2018-08-23T17:53:34.856Z,38.81
2018-08-23T17:56:02.944Z,39.69
2018-08-23T17:58:31.008Z,39.35
2018-08-23T18:00:59.066Z,40.67
2018-08-23T18:03:27.195Z,40.93
2018-08-23T18:05:55.263Z,41.10
2018-08-23T18:08:23.331Z,41.78
2018-08-23T18:10:51.384Z,40.47
2018-08-23T18:13:19.653Z,42.42
2018-08-23T18:15:53.068Z,42.95
2018-08-23T18:18:21.604Z,43.49
2018-08-23T18:20:51.390Z,42.34
2018-08-23T18:23:19.941Z,43.28
2018-08-23T18:25:48.237Z,43.30
2018-08-23T18:28:17.190Z,44.70
2018-08-23T18:30:45.453Z,45.75
2018-08-23T18:33:14.275Z,44.09
2018-08-23T18:35:42.480Z,45.72
2018-08-23T18:38:10.725Z,45.26
2018-08-23T18:40:38.917Z,46.58
2018-08-23T18:43:09.405Z,45.23
2018-08-23T18:45:38.949Z,46.14
2018-08-23T18:48:07.400Z,45.57
2018-08-23T18:50:35.927Z,47.13
2018-08-23T18:53:04.252Z,45.27
2018-08-23T18:58:24.043Z,47.67
2018-08-23T19:00:54.484Z,49.47
2018-08-23T19:03:23.738Z,50.14
2018-08-23T19:05:52.751Z,50.72
2018-08-23T19:08:21.827Z,51.01
2018-08-23T19:11:02.037Z,51.88
2018-08-23T19:13:35.868Z,52.08
2018-08-23T19:16:12.680Z,55.01
2018-08-23T19:18:47.748Z,59.22
2018-08-23T19:21:16.622Z,60.91
2018-08-23T19:23:48.664Z,64.21
2018-08-23T19:26:19.614Z,67.53
2018-08-23T19:28:55.112Z,67.70
2018-08-23T19:31:28.289Z,68.55
2018-08-23T19:34:03.397Z,69.19
2018-08-23T19:36:35.930Z,69.19
2018-08-23T19:42:39.894Z,69.46
2018-08-23T19:45:12.893Z,69.73
2018-08-23T19:47:53.186Z,67.38
2018-08-23T19:50:26.790Z,68.64
2018-08-23T19:52:59.957Z,68.02
2018-08-23T19:55:37.427Z,69.53
2018-08-23T19:58:07.606Z,72.39
2018-08-23T20:00:39.168Z,72.31
2018-08-23T20:03:09.778Z,75.13
2018-08-23T20:05:42.107Z,74.70
2018-08-23T20:08:13.583Z,74.43
2018-08-23T20:10:44.080Z,74.69
2018-08-23T20:13:12.685Z,75.75
2018-08-23T20:15:42.129Z,74.10
2018-08-23T20:18:11.275Z,73.58
2018-08-23T20:20:50.139Z,74.56
2018-08-23T20:23:37.871Z,73.99
2018-08-23T20:26:10.465Z,74.30
2018-08-23T20:28:42.860Z,73.60
2018-08-23T20:31:17.438Z,74.20
2018-08-23T20:33:46.375Z,76.10
2018-08-23T20:36:15.657Z,75.18
2018-08-23T20:38:46.012Z,75.45
2018-08-23T20:41:15.469Z,76.39
2018-08-23T20:43:48.676Z,75.98
2018-08-23T20:46:19.908Z,75.09
2018-08-23T20:48:48.648Z,75.89
2018-08-23T20:51:19.038Z,76.20
2018-08-23T20:53:49.855Z,77.19
2018-08-23T20:56:18.100Z,76.45
2018-08-23T20:58:46.557Z,76.47
2018-08-23T21:01:14.697Z,76.38
2018-08-23T21:03:43.446Z,77.20
2018-08-23T21:06:11.977Z,76.80
2018-08-23T21:08:41.209Z,76.50
2018-08-23T21:11:09.822Z,78.03
2018-08-23T21:13:38.326Z,78.09
2018-08-23T21:16:07.313Z,77.61
2018-08-23T21:18:36.668Z,77.96
2018-08-23T21:21:09.331Z,77.19
2018-08-23T21:23:40.528Z,77.42
2018-08-23T21:26:14.649Z,77.22
2018-08-23T21:28:44.421Z,77.56
2018-08-23T21:31:13.645Z,76.42
2018-08-23T21:33:42.429Z,75.61
2018-08-23T21:36:11.546Z,75.91
2018-08-23T21:38:39.860Z,75.93
2018-08-23T21:41:08.018Z,75.50
2018-08-23T21:43:37.030Z,75.86
2018-08-23T21:46:05.450Z,75.78
2018-08-23T21:48:33.504Z,75.60
2018-08-23T21:51:01.617Z,75.39
2018-08-23T21:53:29.831Z,75.21
2018-08-23T21:55:57.975Z,74.48
2018-08-23T21:58:26.138Z,74.05
2018-08-23T22:00:54.418Z,73.72
2018-08-23T22:03:23.184Z,74.49
2018-08-23T22:05:51.778Z,74.61
2018-08-23T22:08:19.991Z,74.98
2018-08-23T22:10:48.171Z,75.75
2018-08-23T22:13:16.374Z,75.78
2018-08-23T22:15:46.315Z,75.59
2018-08-23T22:18:14.791Z,76.06
2018-08-23T22:20:43.232Z,75.38
2018-08-23T22:23:11.386Z,75.86
2018-08-23T22:25:40.146Z,75.97
2018-08-23T22:28:09.385Z,76.00
2018-08-23T22:30:38.350Z,75.79
2018-08-23T22:33:06.943Z,76.02
2018-08-23T22:35:35.126Z,76.41
2018-08-23T22:38:03.342Z,76.87
2018-08-23T22:40:32.510Z,76.91
2018-08-23T22:43:00.722Z,77.14
2018-08-23T22:45:29.025Z,77.44
2018-08-23T22:47:57.208Z,77.60
2018-08-23T22:50:25.348Z,77.18
2018-08-23T22:52:53.532Z,77.44
2018-08-23T22:55:21.764Z,78.01
2018-08-23T22:57:49.948Z,77.79
2018-08-23T23:00:18.609Z,77.75
2018-08-23T23:02:47.392Z,77.12
2018-08-23T23:05:15.761Z,77.98
2018-08-23T23:07:43.811Z,78.48
2018-08-23T23:10:12.223Z,79.10
2018-08-23T23:12:40.288Z,79.97
2018-08-23T23:15:13.587Z,80.13
2018-08-23T23:17:41.654Z,79.27
2018-08-23T23:20:09.728Z,79.45
2018-08-23T23:22:37.899Z,79.72
2018-08-23T23:25:06.044Z,79.93
2018-08-23T23:27:34.168Z,80.79
2018-08-23T23:30:02.322Z,80.95
2018-08-23T23:32:30.389Z,80.49
2018-08-23T23:34:58.443Z,80.94
2018-08-23T23:37:26.532Z,80.96
2018-08-23T23:39:54.591Z,81.49
2018-08-23T23:42:22.678Z,81.10
2018-08-23T23:44:50.754Z,81.56
2018-08-23T23:47:18.846Z,81.80
2018-08-23T23:49:46.917Z,81.82
2018-08-23T23:52:14.987Z,81.39
2018-08-23T23:54:43.046Z,81.46
2018-08-23T23:57:11.136Z,81.00
2018-08-23T23:59:39.345Z,81.34
